KBS weather

Bo Airport
Bo, Southern Province, Sierra Leone

Public forecast

Using degrees Celsius for public forecast. Weather courtesy of forecast.io.

METAR (pilot weather report)

Report is more than 6 hours old.

Closest report is Lungi International Airport, 94.3 nm (174.6 km) WNW. Retrieved 2019/05/21 21:00 UTC (2 days ago):

GFLL 212100Z 26006KT 9999 SCT012 FEW027CB 27/24 Q1010 RMK CB-NE

TAF (pilot weather forecast)

Forecast is more than 12 hours old.

Closest forecast is Lungi International Airport, 94.3 nm (174.6 km) WNW. Retrieved 2019/05/22 00:12 UTC (2 days ago):

TAF TAF GFLL 212300Z 2200/2306 23006KT 9999 SCT013 FEW027CB TEMPO 2204/2208 12010KT 8000 TS/TSRA BKN010 FEW025CB TEMPO 2210/2214 21007KT 9000 BKN012 TEMPO 2214/2219 30012KT 9999 SCT013 FEW027CB TEMPO 2220/2300 33010KT BKN012 FEW025CB